Lovelaceville, Kentucky
Current Conditions -  °F | °C
As of 7:19 PM on Wednesday 26 Nov 2014 (Local Time) from KPAH Reporting Station
Overcast Overcast  
Wind Chill: 30°   Ceiling: 1500
Heat Index: 38°   Visibility: 10mi
Dew Point: 34°   Wind: 12mph
Humidity: 86%   Direction: 270°W
Pressure: 30.05"   Gusts: 24mph
Location:  36.97°N, 88.83°W
Report Text: KPAH 270119Z 27010G21KT 10SM OVC015 03/01 A3005 RMK AO2 T00330011
Loading
Personal Weather Stations






























Interactive Weather Map New forecast layout! Learn more

10-Day Weather Forecast

Advertisements
Track Severe Weather on mobile